sensor_id;sensor_type;location;lat;lon;timestamp;pressure;altitude;pressure_sealevel;temperature;humidity
25650;BME280;13505;45.196;5.696;2022-07-23T04:01:28;99156.78;;;28.57;43.04
25650;BME280;13505;45.196;5.696;2022-07-23T04:06:19;99182.50;;;28.76;41.91
25650;BME280;13505;45.196;5.696;2022-07-23T04:11:10;99218.34;;;28.87;41.94
25650;BME280;13505;45.196;5.696;2022-07-23T04:16:00;99223.03;;;28.93;42.26
25650;BME280;13505;45.196;5.696;2022-07-23T04:20:51;99238.00;;;28.89;41.73
25650;BME280;13505;45.196;5.696;2022-07-23T04:25:42;99273.72;;;28.77;42.70
25650;BME280;13505;45.196;5.696;2022-07-23T04:30:32;99280.91;;;28.17;44.46
25650;BME280;13505;45.196;5.696;2022-07-23T04:35:23;99284.56;;;27.62;45.46
25650;BME280;13505;45.196;5.696;2022-07-23T04:40:13;99299.28;;;27.51;46.08
25650;BME280;13505;45.196;5.696;2022-07-23T04:45:04;99318.81;;;27.38;48.83
25650;BME280;13505;45.196;5.696;2022-07-23T04:49:54;99333.34;;;27.06;48.87
25650;BME280;13505;45.196;5.696;2022-07-23T04:54:45;99335.41;;;26.95;48.51
25650;BME280;13505;45.196;5.696;2022-07-23T04:59:35;99343.31;;;27.05;47.93
25650;BME280;13505;45.196;5.696;2022-07-23T05:04:25;99345.78;;;27.23;46.87
25650;BME280;13505;45.196;5.696;2022-07-23T05:09:16;99348.34;;;27.16;49.38
25650;BME280;13505;45.196;5.696;2022-07-23T05:14:06;99311.56;;;26.99;50.66
25650;BME280;13505;45.196;5.696;2022-07-23T05:18:56;99286.91;;;26.77;52.65
25650;BME280;13505;45.196;5.696;2022-07-23T05:23:47;99285.38;;;26.66;53.62
25650;BME280;13505;45.196;5.696;2022-07-23T05:28:37;99263.47;;;26.53;54.71
25650;BME280;13505;45.196;5.696;2022-07-23T05:33:27;99268.00;;;26.60;54.51
25650;BME280;13505;45.196;5.696;2022-07-23T05:38:18;99221.63;;;26.80;53.02
25650;BME280;13505;45.196;5.696;2022-07-23T05:43:08;99226.09;;;26.56;59.25
25650;BME280;13505;45.196;5.696;2022-07-23T05:47:58;99284.72;;;26.72;57.03
25650;BME280;13505;45.196;5.696;2022-07-23T05:52:49;99257.25;;;26.92;56.35
25650;BME280;13505;45.196;5.696;2022-07-23T05:57:40;99264.47;;;27.08;58.37
25650;BME280;13505;45.196;5.696;2022-07-23T06:02:31;99265.94;;;26.79;59.47
25650;BME280;13505;45.196;5.696;2022-07-23T06:07:21;99265.66;;;26.49;59.55
25650;BME280;13505;45.196;5.696;2022-07-23T06:12:11;99278.31;;;26.15;61.45
25650;BME280;13505;45.196;5.696;2022-07-23T06:17:02;99263.63;;;25.76;62.63
25650;BME280;13505;45.196;5.696;2022-07-23T06:21:52;99266.66;;;25.65;62.63
25650;BME280;13505;45.196;5.696;2022-07-23T06:26:43;99275.41;;;25.50;62.61
25650;BME280;13505;45.196;5.696;2022-07-23T06:31:33;99267.88;;;25.28;62.93
25650;BME280;13505;45.196;5.696;2022-07-23T06:36:23;99265.16;;;25.28;62.93
25650;BME280;13505;45.196;5.696;2022-07-23T06:41:14;99262.50;;;25.36;62.93
25650;BME280;13505;45.196;5.696;2022-07-23T06:46:04;99265.97;;;25.80;62.03
25650;BME280;13505;45.196;5.696;2022-07-23T06:50:54;99259.41;;;26.48;61.31
25650;BME280;13505;45.196;5.696;2022-07-23T06:55:45;99260.97;;;26.99;60.03
25650;BME280;13505;45.196;5.696;2022-07-23T07:00:36;99266.66;;;27.13;58.79
25650;BME280;13505;45.196;5.696;2022-07-23T07:05:26;99281.09;;;27.37;57.91
25650;BME280;13505;45.196;5.696;2022-07-23T07:10:17;99279.38;;;27.76;56.49
25650;BME280;13505;45.196;5.696;2022-07-23T07:15:08;99269.78;;;27.88;55.99
25650;BME280;13505;45.196;5.696;2022-07-23T07:19:59;99271.16;;;28.31;54.31
25650;BME280;13505;45.196;5.696;2022-07-23T07:24:49;99269.22;;;28.54;52.62
25650;BME280;13505;45.196;5.696;2022-07-23T07:29:39;99263.28;;;28.89;51.93
25650;BME280;13505;45.196;5.696;2022-07-23T07:34:30;99268.13;;;28.94;51.94
25650;BME280;13505;45.196;5.696;2022-07-23T07:39:20;99271.50;;;29.11;50.43
25650;BME280;13505;45.196;5.696;2022-07-23T07:44:10;99288.72;;;29.03;48.96
25650;BME280;13505;45.196;5.696;2022-07-23T07:49:01;99285.75;;;29.35;49.21
25650;BME280;13505;45.196;5.696;2022-07-23T07:53:51;99288.31;;;28.76;49.97
25650;BME280;13505;45.196;5.696;2022-07-23T07:58:41;99283.69;;;28.85;50.19
25650;BME280;13505;45.196;5.696;2022-07-23T08:03:32;99283.94;;;29.05;50.06
25650;BME280;13505;45.196;5.696;2022-07-23T08:08:22;99281.66;;;29.76;48.99
25650;BME280;13505;45.196;5.696;2022-07-23T08:13:14;99290.28;;;30.23;47.68
25650;BME280;13505;45.196;5.696;2022-07-23T08:18:05;99290.41;;;29.93;47.79
25650;BME280;13505;45.196;5.696;2022-07-23T08:23:02;99289.28;;;30.31;46.97
25650;BME280;13505;45.196;5.696;2022-07-23T08:27:53;99282.75;;;30.03;47.40
25650;BME280;13505;45.196;5.696;2022-07-23T08:37:51;99285.00;;;31.07;44.91
25650;BME280;13505;45.196;5.696;2022-07-23T08:42:42;99283.56;;;30.76;44.64
25650;BME280;13505;45.196;5.696;2022-07-23T08:47:33;99275.88;;;31.28;43.48
25650;BME280;13505;45.196;5.696;2022-07-23T08:52:24;99289.34;;;31.50;42.94
25650;BME280;13505;45.196;5.696;2022-07-23T08:57:15;99284.44;;;31.94;41.63
25650;BME280;13505;45.196;5.696;2022-07-23T09:02:06;99287.56;;;31.91;41.61
25650;BME280;13505;45.196;5.696;2022-07-23T09:06:56;99281.50;;;31.82;41.54
25650;BME280;13505;45.196;5.696;2022-07-23T09:12:02;99281.72;;;32.14;40.24
25650;BME280;13505;45.196;5.696;2022-07-23T09:16:53;99288.66;;;32.64;39.17
25650;BME280;13505;45.196;5.696;2022-07-23T09:21:44;99281.09;;;32.39;39.08
25650;BME280;13505;45.196;5.696;2022-07-23T09:26:39;99279.84;;;32.62;38.82
25650;BME280;13505;45.196;5.696;2022-07-23T09:36:37;99268.44;;;32.99;38.18
25650;BME280;13505;45.196;5.696;2022-07-23T09:41:35;99263.16;;;33.50;36.69
25650;BME280;13505;45.196;5.696;2022-07-23T09:46:27;99262.88;;;33.90;36.38
25650;BME280;13505;45.196;5.696;2022-07-23T09:51:18;99271.94;;;33.59;36.32
25650;BME280;13505;45.196;5.696;2022-07-23T09:56:28;99268.53;;;33.18;36.93
25650;BME280;13505;45.196;5.696;2022-07-23T10:01:19;99269.75;;;33.29;36.72
25650;BME280;13505;45.196;5.696;2022-07-23T10:06:13;99269.56;;;33.23;36.65
25650;BME280;13505;45.196;5.696;2022-07-23T10:11:04;99261.88;;;34.17;35.14
25650;BME280;13505;45.196;5.696;2022-07-23T10:15:55;99261.56;;;34.50;34.35
25650;BME280;13505;45.196;5.696;2022-07-23T10:20:47;99261.28;;;34.96;33.62
25650;BME280;13505;45.196;5.696;2022-07-23T10:25:46;99266.78;;;34.59;33.69
25650;BME280;13505;45.196;5.696;2022-07-23T10:30:52;99264.22;;;33.81;35.16
25650;BME280;13505;45.196;5.696;2022-07-23T10:41:02;99264.84;;;32.98;35.88
25650;BME280;13505;45.196;5.696;2022-07-23T10:45:54;99256.19;;;33.15;35.58
25650;BME280;13505;45.196;5.696;2022-07-23T10:51:06;99253.91;;;33.83;34.80
25650;BME280;13505;45.196;5.696;2022-07-23T10:55:57;99253.44;;;33.61;34.70
25650;BME280;13505;45.196;5.696;2022-07-23T11:00:48;99258.19;;;33.72;34.78
25650;BME280;13505;45.196;5.696;2022-07-23T11:05:43;99254.47;;;33.21;35.47
25650;BME280;13505;45.196;5.696;2022-07-23T11:10:44;99258.59;;;33.37;35.25
25650;BME280;13505;45.196;5.696;2022-07-23T11:20:51;99263.50;;;33.99;34.67
25650;BME280;13505;45.196;5.696;2022-07-23T11:25:42;99239.84;;;34.30;33.93
25650;BME280;13505;45.196;5.696;2022-07-23T11:30:40;99242.13;;;34.59;33.14
25650;BME280;13505;45.196;5.696;2022-07-23T11:35:30;99237.38;;;34.03;34.61
25650;BME280;13505;45.196;5.696;2022-07-23T11:40:21;99234.84;;;34.02;34.74
25650;BME280;13505;45.196;5.696;2022-07-23T11:45:12;99230.44;;;34.01;34.43
25650;BME280;13505;45.196;5.696;2022-07-23T11:50:04;99228.69;;;33.42;35.65
25650;BME280;13505;45.196;5.696;2022-07-23T11:55:06;99219.59;;;33.55;34.91
25650;BME280;13505;45.196;5.696;2022-07-23T12:00:00;99218.59;;;34.07;34.81
25650;BME280;13505;45.196;5.696;2022-07-23T12:04:52;99211.63;;;34.74;33.76
25650;BME280;13505;45.196;5.696;2022-07-23T12:09:44;99217.63;;;35.01;32.88
25650;BME280;13505;45.196;5.696;2022-07-23T12:14:56;99211.38;;;34.57;33.47
25650;BME280;13505;45.196;5.696;2022-07-23T12:19:47;99218.03;;;34.23;34.42
25650;BME280;13505;45.196;5.696;2022-07-23T12:24:56;99211.88;;;34.28;33.75
25650;BME280;13505;45.196;5.696;2022-07-23T12:29:47;99207.75;;;34.63;33.36
25650;BME280;13505;45.196;5.696;2022-07-23T12:34:38;99218.03;;;34.68;33.35
25650;BME280;13505;45.196;5.696;2022-07-23T12:39:30;99204.75;;;34.02;34.11
25650;BME280;13505;45.196;5.696;2022-07-23T12:44:21;99208.31;;;34.46;33.91
25650;BME280;13505;45.196;5.696;2022-07-23T12:49:25;99190.94;;;34.78;33.00
25650;BME280;13505;45.196;5.696;2022-07-23T12:54:16;99186.50;;;34.96;33.24
25650;BME280;13505;45.196;5.696;2022-07-23T12:59:07;99194.91;;;35.43;32.52
25650;BME280;13505;45.196;5.696;2022-07-23T13:04:12;99194.31;;;35.84;31.54
25650;BME280;13505;45.196;5.696;2022-07-23T13:09:05;99181.22;;;36.10;30.83
25650;BME280;13505;45.196;5.696;2022-07-23T13:13:55;99189.88;;;35.71;31.40
25650;BME280;13505;45.196;5.696;2022-07-23T13:18:46;99183.44;;;35.65;32.52
25650;BME280;13505;45.196;5.696;2022-07-23T13:23:36;99177.41;;;36.11;31.59
25650;BME280;13505;45.196;5.696;2022-07-23T13:28:27;99168.34;;;36.10;31.42
25650;BME280;13505;45.196;5.696;2022-07-23T13:33:19;99190.63;;;36.02;31.10
25650;BME280;13505;45.196;5.696;2022-07-23T13:38:10;99186.13;;;35.53;32.19
25650;BME280;13505;45.196;5.696;2022-07-23T13:43:01;99183.22;;;35.67;31.91
25650;BME280;13505;45.196;5.696;2022-07-23T13:47:52;99179.97;;;35.70;31.51
25650;BME280;13505;45.196;5.696;2022-07-23T13:52:43;99176.31;;;35.76;31.38
25650;BME280;13505;45.196;5.696;2022-07-23T13:57:33;99174.16;;;35.90;31.71
25650;BME280;13505;45.196;5.696;2022-07-23T14:02:23;99170.00;;;35.87;31.48
25650;BME280;13505;45.196;5.696;2022-07-23T14:07:14;99175.22;;;35.89;31.54
25650;BME280;13505;45.196;5.696;2022-07-23T14:12:05;99166.53;;;35.80;31.73
25650;BME280;13505;45.196;5.696;2022-07-23T14:16:56;99166.63;;;35.73;31.89
25650;BME280;13505;45.196;5.696;2022-07-23T14:21:46;99155.06;;;35.59;32.17
25650;BME280;13505;45.196;5.696;2022-07-23T14:26:38;99159.88;;;35.33;32.40
25650;BME280;13505;45.196;5.696;2022-07-23T14:31:28;99146.34;;;35.62;31.70
25650;BME280;13505;45.196;5.696;2022-07-23T14:36:19;99154.75;;;35.37;32.70
25650;BME280;13505;45.196;5.696;2022-07-23T14:41:09;99148.97;;;35.15;32.46
25650;BME280;13505;45.196;5.696;2022-07-23T14:46:01;99144.75;;;34.82;33.02
25650;BME280;13505;45.196;5.696;2022-07-23T14:50:51;99141.47;;;34.73;33.47
25650;BME280;13505;45.196;5.696;2022-07-23T14:55:42;99138.78;;;34.54;33.80
25650;BME280;13505;45.196;5.696;2022-07-23T15:00:32;99150.13;;;34.58;33.54
25650;BME280;13505;45.196;5.696;2022-07-23T15:05:23;99142.94;;;34.38;34.18
25650;BME280;13505;45.196;5.696;2022-07-23T15:10:13;99156.41;;;34.21;34.30
25650;BME280;13505;45.196;5.696;2022-07-23T15:15:04;99161.94;;;33.89;34.58
25650;BME280;13505;45.196;5.696;2022-07-23T15:19:55;99156.91;;;33.60;35.15
25650;BME280;13505;45.196;5.696;2022-07-23T15:24:45;99148.34;;;33.50;35.37
25650;BME280;13505;45.196;5.696;2022-07-23T15:29:36;99155.22;;;33.59;35.46
25650;BME280;13505;45.196;5.696;2022-07-23T15:34:26;99159.97;;;33.71;34.99
25650;BME280;13505;45.196;5.696;2022-07-23T15:39:17;99161.59;;;33.78;34.73
25650;BME280;13505;45.196;5.696;2022-07-23T15:44:07;99163.34;;;33.73;34.94
25650;BME280;13505;45.196;5.696;2022-07-23T15:48:57;99163.16;;;33.67;34.81
25650;BME280;13505;45.196;5.696;2022-07-23T15:53:48;99159.47;;;33.80;34.65
25650;BME280;13505;45.196;5.696;2022-07-23T15:58:38;99161.16;;;33.81;34.13
25650;BME280;13505;45.196;5.696;2022-07-23T16:03:29;99159.47;;;33.80;34.12
25650;BME280;13505;45.196;5.696;2022-07-23T16:08:20;99147.81;;;33.92;34.10
25650;BME280;13505;45.196;5.696;2022-07-23T16:13:10;99150.44;;;33.80;33.75
25650;BME280;13505;45.196;5.696;2022-07-23T16:18:01;99155.28;;;33.78;33.88
25650;BME280;13505;45.196;5.696;2022-07-23T16:22:51;99147.53;;;33.75;33.64
25650;BME280;13505;45.196;5.696;2022-07-23T16:27:42;99156.22;;;33.65;33.89
25650;BME280;13505;45.196;5.696;2022-07-23T16:32:32;99153.28;;;33.66;33.87
25650;BME280;13505;45.196;5.696;2022-07-23T16:37:22;99146.25;;;33.45;34.34
25650;BME280;13505;45.196;5.696;2022-07-23T16:42:13;99158.91;;;33.39;34.40
25650;BME280;13505;45.196;5.696;2022-07-23T16:47:03;99160.56;;;33.15;35.18
25650;BME280;13505;45.196;5.696;2022-07-23T16:51:54;99160.56;;;33.08;35.31
25650;BME280;13505;45.196;5.696;2022-07-23T16:56:44;99167.59;;;32.91;35.74
25650;BME280;13505;45.196;5.696;2022-07-23T17:01:34;99173.13;;;32.70;36.12
25650;BME280;13505;45.196;5.696;2022-07-23T17:06:25;99167.69;;;32.64;36.18
25650;BME280;13505;45.196;5.696;2022-07-23T17:11:15;99181.97;;;32.59;36.20
25650;BME280;13505;45.196;5.696;2022-07-23T17:16:06;99175.75;;;32.25;36.67
25650;BME280;13505;45.196;5.696;2022-07-23T17:20:56;99178.47;;;32.25;36.75
25650;BME280;13505;45.196;5.696;2022-07-23T17:25:46;99183.94;;;32.18;37.01
25650;BME280;13505;45.196;5.696;2022-07-23T17:30:37;99184.38;;;31.95;37.21
25650;BME280;13505;45.196;5.696;2022-07-23T17:35:27;99175.59;;;31.93;36.72
25650;BME280;13505;45.196;5.696;2022-07-23T17:40:18;99182.88;;;31.79;37.05
25650;BME280;13505;45.196;5.696;2022-07-23T17:45:09;99186.47;;;31.72;37.00
25650;BME280;13505;45.196;5.696;2022-07-23T17:50:04;99186.47;;;31.66;37.01
25650;BME280;13505;45.196;5.696;2022-07-23T17:54:55;99193.38;;;31.55;37.33
25650;BME280;13505;45.196;5.696;2022-07-23T17:59:45;99201.53;;;31.41;37.20
25650;BME280;13505;45.196;5.696;2022-07-23T18:04:35;99206.97;;;31.35;37.44
25650;BME280;13505;45.196;5.696;2022-07-23T18:09:26;99200.38;;;31.22;37.35
25650;BME280;13505;45.196;5.696;2022-07-23T18:14:16;99200.31;;;30.95;37.67
25650;BME280;13505;45.196;5.696;2022-07-23T18:19:06;99224.97;;;30.80;37.71
25650;BME280;13505;45.196;5.696;2022-07-23T18:23:57;99221.75;;;30.70;37.97
25650;BME280;13505;45.196;5.696;2022-07-23T18:28:48;99223.69;;;30.47;37.98
25650;BME280;13505;45.196;5.696;2022-07-23T18:33:38;99246.66;;;30.38;38.16
25650;BME280;13505;45.196;5.696;2022-07-23T18:38:29;99237.41;;;30.32;38.37
25650;BME280;13505;45.196;5.696;2022-07-23T18:43:19;99250.94;;;30.26;38.15
25650;BME280;13505;45.196;5.696;2022-07-23T18:48:10;99250.25;;;30.17;38.53
25650;BME280;13505;45.196;5.696;2022-07-23T18:53:00;99253.63;;;29.97;38.70
25650;BME280;13505;45.196;5.696;2022-07-23T18:57:52;99265.22;;;29.84;39.04
25650;BME280;13505;45.196;5.696;2022-07-23T19:02:42;99269.47;;;29.72;39.30
25650;BME280;13505;45.196;5.696;2022-07-23T19:07:33;99272.06;;;29.58;39.62
25650;BME280;13505;45.196;5.696;2022-07-23T19:12:24;99267.97;;;29.47;39.26
25650;BME280;13505;45.196;5.696;2022-07-23T19:17:14;99280.72;;;29.32;39.97
25650;BME280;13505;45.196;5.696;2022-07-23T19:22:05;99277.75;;;29.27;39.85
25650;BME280;13505;45.196;5.696;2022-07-23T19:26:57;99286.81;;;29.19;40.07
25650;BME280;13505;45.196;5.696;2022-07-23T19:31:47;99298.25;;;29.14;39.97
25650;BME280;13505;45.196;5.696;2022-07-23T19:36:38;99296.88;;;29.03;40.08
25650;BME280;13505;45.196;5.696;2022-07-23T19:41:28;99314.56;;;28.99;40.33
25650;BME280;13505;45.196;5.696;2022-07-23T19:46:18;99324.84;;;28.89;40.57
25650;BME280;13505;45.196;5.696;2022-07-23T19:51:09;99328.16;;;28.84;40.63
25650;BME280;13505;45.196;5.696;2022-07-23T19:55:59;99343.25;;;28.78;40.73
25650;BME280;13505;45.196;5.696;2022-07-23T20:00:49;99349.91;;;28.76;41.04
25650;BME280;13505;45.196;5.696;2022-07-23T20:05:40;99359.88;;;28.60;41.46
25650;BME280;13505;45.196;5.696;2022-07-23T20:10:30;99372.59;;;28.60;41.50
25650;BME280;13505;45.196;5.696;2022-07-23T20:15:22;99365.69;;;28.57;41.50
25650;BME280;13505;45.196;5.696;2022-07-23T20:20:13;99378.53;;;28.40;41.88
25650;BME280;13505;45.196;5.696;2022-07-23T20:25:06;99378.91;;;28.37;42.06
25650;BME280;13505;45.196;5.696;2022-07-23T20:29:57;99387.47;;;28.25;41.93
25650;BME280;13505;45.196;5.696;2022-07-23T20:34:47;99384.34;;;28.05;42.33
25650;BME280;13505;45.196;5.696;2022-07-23T20:39:38;99382.28;;;28.07;42.26
25650;BME280;13505;45.196;5.696;2022-07-23T20:44:28;99391.22;;;28.16;41.97
25650;BME280;13505;45.196;5.696;2022-07-23T20:49:19;99384.50;;;28.04;42.37
25650;BME280;13505;45.196;5.696;2022-07-23T20:54:10;99383.19;;;27.99;42.53
25650;BME280;13505;45.196;5.696;2022-07-23T20:59:00;99392.44;;;27.82;42.49
25650;BME280;13505;45.196;5.696;2022-07-23T21:03:51;99391.88;;;27.95;42.16
25650;BME280;13505;45.196;5.696;2022-07-23T21:08:41;99398.19;;;27.87;42.55
25650;BME280;13505;45.196;5.696;2022-07-23T21:13:32;99401.16;;;27.69;42.55
25650;BME280;13505;45.196;5.696;2022-07-23T21:18:22;99398.94;;;27.72;42.38
25650;BME280;13505;45.196;5.696;2022-07-23T21:23:12;99403.75;;;27.54;42.81
25650;BME280;13505;45.196;5.696;2022-07-23T21:28:03;99401.56;;;27.41;43.03
25650;BME280;13505;45.196;5.696;2022-07-23T21:32:53;99410.19;;;27.44;43.14
25650;BME280;13505;45.196;5.696;2022-07-23T21:37:44;99415.75;;;27.51;42.94
25650;BME280;13505;45.196;5.696;2022-07-23T21:42:34;99416.28;;;27.55;42.67
25650;BME280;13505;45.196;5.696;2022-07-23T21:47:24;99424.03;;;27.50;43.18
25650;BME280;13505;45.196;5.696;2022-07-23T21:52:15;99417.03;;;27.24;43.62
25650;BME280;13505;45.196;5.696;2022-07-23T21:57:05;99421.56;;;27.31;44.05
